sensor_id;sensor_type;location;lat;lon;timestamp;P1;durP1;ratioP1;P2;durP2;ratioP2
4642;SDS011;2334;48.710;9.622;2023-06-10T00:01:36;7.13;;;5.50;;
4642;SDS011;2334;48.710;9.622;2023-06-10T00:04:03;7.80;;;6.07;;
4642;SDS011;2334;48.710;9.622;2023-06-10T00:06:31;6.57;;;5.97;;
4642;SDS011;2334;48.710;9.622;2023-06-10T00:09:00;7.13;;;5.60;;
4642;SDS011;2334;48.710;9.622;2023-06-10T00:11:29;5.90;;;5.03;;
4642;SDS011;2334;48.710;9.622;2023-06-10T00:13:58;10.07;;;6.77;;
4642;SDS011;2334;48.710;9.622;2023-06-10T00:16:25;8.80;;;6.63;;
4642;SDS011;2334;48.710;9.622;2023-06-10T00:18:52;8.10;;;6.60;;
4642;SDS011;2334;48.710;9.622;2023-06-10T00:21:20;11.07;;;6.40;;
4642;SDS011;2334;48.710;9.622;2023-06-10T00:23:49;6.00;;;5.50;;
4642;SDS011;2334;48.710;9.622;2023-06-10T00:26:16;7.40;;;5.27;;
4642;SDS011;2334;48.710;9.622;2023-06-10T00:28:43;9.07;;;5.87;;
4642;SDS011;2334;48.710;9.622;2023-06-10T00:31:12;6.30;;;5.70;;
4642;SDS011;2334;48.710;9.622;2023-06-10T00:33:39;7.50;;;5.63;;
4642;SDS011;2334;48.710;9.622;2023-06-10T00:36:06;6.17;;;5.57;;
4642;SDS011;2334;48.710;9.622;2023-06-10T00:38:33;9.57;;;6.77;;
4642;SDS011;2334;48.710;9.622;2023-06-10T00:41:00;11.60;;;7.57;;
4642;SDS011;2334;48.710;9.622;2023-06-10T00:43:27;5.97;;;5.40;;
4642;SDS011;2334;48.710;9.622;2023-06-10T00:45:53;8.83;;;6.00;;
4642;SDS011;2334;48.710;9.622;2023-06-10T00:48:22;7.80;;;6.40;;
4642;SDS011;2334;48.710;9.622;2023-06-10T00:50:49;7.20;;;6.50;;
4642;SDS011;2334;48.710;9.622;2023-06-10T00:53:16;7.07;;;6.20;;
4642;SDS011;2334;48.710;9.622;2023-06-10T00:55:44;6.10;;;5.43;;
4642;SDS011;2334;48.710;9.622;2023-06-10T00:58:11;7.17;;;6.20;;
4642;SDS011;2334;48.710;9.622;2023-06-10T01:00:38;10.03;;;5.60;;
4642;SDS011;2334;48.710;9.622;2023-06-10T01:03:05;6.87;;;5.80;;
4642;SDS011;2334;48.710;9.622;2023-06-10T01:05:34;7.90;;;5.40;;
4642;SDS011;2334;48.710;9.622;2023-06-10T01:08:03;7.90;;;5.90;;
4642;SDS011;2334;48.710;9.622;2023-06-10T01:10:37;7.57;;;5.63;;
4642;SDS011;2334;48.710;9.622;2023-06-10T01:13:09;9.27;;;6.40;;
4642;SDS011;2334;48.710;9.622;2023-06-10T01:15:38;6.90;;;5.60;;
4642;SDS011;2334;48.710;9.622;2023-06-10T01:18:06;6.90;;;6.20;;
4642;SDS011;2334;48.710;9.622;2023-06-10T01:20:36;9.63;;;5.97;;
4642;SDS011;2334;48.710;9.622;2023-06-10T01:23:07;8.30;;;5.80;;
4642;SDS011;2334;48.710;9.622;2023-06-10T01:25:36;5.87;;;5.27;;
4642;SDS011;2334;48.710;9.622;2023-06-10T01:28:04;9.47;;;5.80;;
4642;SDS011;2334;48.710;9.622;2023-06-10T01:30:38;5.43;;;4.93;;
4642;SDS011;2334;48.710;9.622;2023-06-10T01:33:11;8.80;;;6.20;;
4642;SDS011;2334;48.710;9.622;2023-06-10T01:35:40;7.27;;;5.90;;
4642;SDS011;2334;48.710;9.622;2023-06-10T01:38:11;8.40;;;6.70;;
4642;SDS011;2334;48.710;9.622;2023-06-10T01:40:40;6.90;;;5.70;;
4642;SDS011;2334;48.710;9.622;2023-06-10T01:43:08;7.43;;;6.00;;
4642;SDS011;2334;48.710;9.622;2023-06-10T01:45:35;8.47;;;6.60;;
4642;SDS011;2334;48.710;9.622;2023-06-10T01:48:02;5.80;;;5.20;;
4642;SDS011;2334;48.710;9.622;2023-06-10T01:50:29;16.10;;;6.57;;
4642;SDS011;2334;48.710;9.622;2023-06-10T01:52:56;11.40;;;7.30;;
4642;SDS011;2334;48.710;9.622;2023-06-10T01:55:27;11.33;;;6.40;;
4642;SDS011;2334;48.710;9.622;2023-06-10T01:57:54;9.00;;;6.30;;
4642;SDS011;2334;48.710;9.622;2023-06-10T02:00:21;8.20;;;6.40;;
4642;SDS011;2334;48.710;9.622;2023-06-10T02:02:48;7.10;;;6.40;;
4642;SDS011;2334;48.710;9.622;2023-06-10T02:05:15;5.80;;;5.30;;
4642;SDS011;2334;48.710;9.622;2023-06-10T02:07:42;7.37;;;5.97;;
4642;SDS011;2334;48.710;9.622;2023-06-10T02:10:09;10.13;;;5.73;;
4642;SDS011;2334;48.710;9.622;2023-06-10T02:12:38;10.70;;;5.60;;
4642;SDS011;2334;48.710;9.622;2023-06-10T02:15:05;6.80;;;5.57;;
4642;SDS011;2334;48.710;9.622;2023-06-10T02:17:31;7.70;;;6.27;;
4642;SDS011;2334;48.710;9.622;2023-06-10T02:19:58;7.97;;;6.53;;
4642;SDS011;2334;48.710;9.622;2023-06-10T02:22:32;10.67;;;6.30;;
4642;SDS011;2334;48.710;9.622;2023-06-10T02:25:00;8.13;;;5.43;;
4642;SDS011;2334;48.710;9.622;2023-06-10T02:27:28;9.60;;;6.50;;
4642;SDS011;2334;48.710;9.622;2023-06-10T02:29:57;9.07;;;6.30;;
4642;SDS011;2334;48.710;9.622;2023-06-10T02:32:24;5.97;;;5.03;;
4642;SDS011;2334;48.710;9.622;2023-06-10T02:34:52;8.20;;;5.40;;
4642;SDS011;2334;48.710;9.622;2023-06-10T02:37:19;5.43;;;4.83;;
4642;SDS011;2334;48.710;9.622;2023-06-10T02:39:46;6.40;;;5.30;;
4642;SDS011;2334;48.710;9.622;2023-06-10T02:42:13;5.80;;;5.20;;
4642;SDS011;2334;48.710;9.622;2023-06-10T02:44:40;5.57;;;5.00;;
4642;SDS011;2334;48.710;9.622;2023-06-10T02:47:08;5.70;;;4.83;;
4642;SDS011;2334;48.710;9.622;2023-06-10T02:49:35;7.40;;;5.60;;
4642;SDS011;2334;48.710;9.622;2023-06-10T02:52:02;8.73;;;6.00;;
4642;SDS011;2334;48.710;9.622;2023-06-10T02:54:29;7.77;;;5.30;;
4642;SDS011;2334;48.710;9.622;2023-06-10T02:56:56;8.00;;;5.37;;
4642;SDS011;2334;48.710;9.622;2023-06-10T02:59:23;7.77;;;5.30;;
4642;SDS011;2334;48.710;9.622;2023-06-10T03:01:52;6.40;;;5.00;;
4642;SDS011;2334;48.710;9.622;2023-06-10T03:04:20;5.43;;;4.93;;
4642;SDS011;2334;48.710;9.622;2023-06-10T03:06:48;6.80;;;4.83;;
4642;SDS011;2334;48.710;9.622;2023-06-10T03:09:15;4.40;;;4.00;;
4642;SDS011;2334;48.710;9.622;2023-06-10T03:11:42;5.17;;;4.67;;
4642;SDS011;2334;48.710;9.622;2023-06-10T03:14:09;10.00;;;5.23;;
4642;SDS011;2334;48.710;9.622;2023-06-10T03:16:36;5.63;;;4.53;;
4642;SDS011;2334;48.710;9.622;2023-06-10T03:19:05;7.70;;;4.73;;
4642;SDS011;2334;48.710;9.622;2023-06-10T03:21:33;4.80;;;4.40;;
4642;SDS011;2334;48.710;9.622;2023-06-10T03:24:02;5.67;;;4.50;;
4642;SDS011;2334;48.710;9.622;2023-06-10T03:26:30;5.70;;;5.10;;
4642;SDS011;2334;48.710;9.622;2023-06-10T03:28:57;4.83;;;4.33;;
4642;SDS011;2334;48.710;9.622;2023-06-10T03:31:23;5.37;;;4.43;;
4642;SDS011;2334;48.710;9.622;2023-06-10T03:33:50;4.80;;;4.30;;
4642;SDS011;2334;48.710;9.622;2023-06-10T03:36:17;6.27;;;4.83;;
4642;SDS011;2334;48.710;9.622;2023-06-10T03:38:46;4.73;;;4.07;;
4642;SDS011;2334;48.710;9.622;2023-06-10T03:41:12;7.93;;;4.70;;
4642;SDS011;2334;48.710;9.622;2023-06-10T03:43:40;6.30;;;4.67;;
4642;SDS011;2334;48.710;9.622;2023-06-10T03:46:07;9.63;;;5.73;;
4642;SDS011;2334;48.710;9.622;2023-06-10T03:48:34;9.63;;;5.80;;
4642;SDS011;2334;48.710;9.622;2023-06-10T03:51:01;6.33;;;4.37;;
4642;SDS011;2334;48.710;9.622;2023-06-10T03:53:28;11.60;;;5.47;;
4642;SDS011;2334;48.710;9.622;2023-06-10T03:55:56;6.47;;;4.93;;
4642;SDS011;2334;48.710;9.622;2023-06-10T03:58:23;7.57;;;5.37;;
4642;SDS011;2334;48.710;9.622;2023-06-10T04:00:50;6.67;;;5.30;;
4642;SDS011;2334;48.710;9.622;2023-06-10T04:03:18;6.10;;;4.83;;
4642;SDS011;2334;48.710;9.622;2023-06-10T04:05:46;13.13;;;5.60;;
4642;SDS011;2334;48.710;9.622;2023-06-10T04:08:13;6.17;;;5.33;;
4642;SDS011;2334;48.710;9.622;2023-06-10T04:10:39;5.53;;;4.90;;
4642;SDS011;2334;48.710;9.622;2023-06-10T04:13:08;6.03;;;5.00;;
4642;SDS011;2334;48.710;9.622;2023-06-10T04:15:35;5.60;;;4.67;;
4642;SDS011;2334;48.710;9.622;2023-06-10T04:18:02;8.10;;;4.80;;
4642;SDS011;2334;48.710;9.622;2023-06-10T04:20:29;6.33;;;5.57;;
4642;SDS011;2334;48.710;9.622;2023-06-10T04:22:55;5.83;;;5.00;;
4642;SDS011;2334;48.710;9.622;2023-06-10T04:25:22;4.87;;;4.40;;
4642;SDS011;2334;48.710;9.622;2023-06-10T04:27:51;5.87;;;5.27;;
4642;SDS011;2334;48.710;9.622;2023-06-10T04:30:19;6.77;;;4.83;;
4642;SDS011;2334;48.710;9.622;2023-06-10T04:32:47;9.90;;;5.30;;
4642;SDS011;2334;48.710;9.622;2023-06-10T04:35:14;5.80;;;4.90;;
4642;SDS011;2334;48.710;9.622;2023-06-10T04:37:42;6.37;;;4.93;;
4642;SDS011;2334;48.710;9.622;2023-06-10T04:40:09;8.77;;;5.00;;
4642;SDS011;2334;48.710;9.622;2023-06-10T04:42:36;6.03;;;4.90;;
4642;SDS011;2334;48.710;9.622;2023-06-10T04:45:03;5.23;;;4.47;;
4642;SDS011;2334;48.710;9.622;2023-06-10T04:47:33;6.10;;;5.43;;
4642;SDS011;2334;48.710;9.622;2023-06-10T04:50:00;4.97;;;4.43;;
4642;SDS011;2334;48.710;9.622;2023-06-10T04:52:27;5.43;;;4.70;;
4642;SDS011;2334;48.710;9.622;2023-06-10T04:54:54;6.17;;;4.07;;
4642;SDS011;2334;48.710;9.622;2023-06-10T04:57:21;10.20;;;4.60;;
4642;SDS011;2334;48.710;9.622;2023-06-10T04:59:48;6.10;;;5.23;;
4642;SDS011;2334;48.710;9.622;2023-06-10T05:02:15;4.90;;;4.33;;
4642;SDS011;2334;48.710;9.622;2023-06-10T05:04:43;7.30;;;4.17;;
4642;SDS011;2334;48.710;9.622;2023-06-10T05:07:10;4.37;;;3.80;;
4642;SDS011;2334;48.710;9.622;2023-06-10T05:09:37;8.67;;;5.33;;
4642;SDS011;2334;48.710;9.622;2023-06-10T05:12:04;7.33;;;4.77;;
4642;SDS011;2334;48.710;9.622;2023-06-10T05:14:32;5.03;;;4.10;;
4642;SDS011;2334;48.710;9.622;2023-06-10T05:16:58;5.20;;;4.23;;
4642;SDS011;2334;48.710;9.622;2023-06-10T05:19:25;5.57;;;4.43;;
4642;SDS011;2334;48.710;9.622;2023-06-10T05:21:54;6.50;;;4.00;;
4642;SDS011;2334;48.710;9.622;2023-06-10T05:24:20;4.73;;;4.30;;
4642;SDS011;2334;48.710;9.622;2023-06-10T05:26:48;4.43;;;4.03;;
4642;SDS011;2334;48.710;9.622;2023-06-10T05:29:15;6.47;;;5.20;;
4642;SDS011;2334;48.710;9.622;2023-06-10T05:31:42;4.90;;;4.40;;
4642;SDS011;2334;48.710;9.622;2023-06-10T05:34:09;5.70;;;5.20;;
4642;SDS011;2334;48.710;9.622;2023-06-10T05:36:36;5.77;;;4.70;;
4642;SDS011;2334;48.710;9.622;2023-06-10T05:39:04;5.77;;;4.70;;
4642;SDS011;2334;48.710;9.622;2023-06-10T05:41:31;5.40;;;4.87;;
4642;SDS011;2334;48.710;9.622;2023-06-10T05:43:58;6.27;;;4.80;;
4642;SDS011;2334;48.710;9.622;2023-06-10T05:46:24;5.70;;;4.00;;
4642;SDS011;2334;48.710;9.622;2023-06-10T05:48:51;4.50;;;4.10;;
4642;SDS011;2334;48.710;9.622;2023-06-10T05:51:18;6.03;;;4.30;;
4642;SDS011;2334;48.710;9.622;2023-06-10T05:53:45;5.00;;;4.50;;
4642;SDS011;2334;48.710;9.622;2023-06-10T05:56:13;4.13;;;3.73;;
4642;SDS011;2334;48.710;9.622;2023-06-10T05:58:40;7.83;;;4.40;;
4642;SDS011;2334;48.710;9.622;2023-06-10T06:01:07;4.70;;;4.17;;
4642;SDS011;2334;48.710;9.622;2023-06-10T06:03:34;6.83;;;4.20;;
4642;SDS011;2334;48.710;9.622;2023-06-10T06:06:01;5.80;;;4.23;;
4642;SDS011;2334;48.710;9.622;2023-06-10T06:08:28;5.03;;;4.53;;
4642;SDS011;2334;48.710;9.622;2023-06-10T06:10:55;5.40;;;4.40;;
4642;SDS011;2334;48.710;9.622;2023-06-10T06:13:24;6.30;;;4.90;;
4642;SDS011;2334;48.710;9.622;2023-06-10T06:15:51;4.67;;;4.10;;
4642;SDS011;2334;48.710;9.622;2023-06-10T06:18:18;4.50;;;4.10;;
4642;SDS011;2334;48.710;9.622;2023-06-10T06:20:45;5.30;;;4.33;;
4642;SDS011;2334;48.710;9.622;2023-06-10T06:23:11;5.90;;;5.03;;
4642;SDS011;2334;48.710;9.622;2023-06-10T06:25:38;5.83;;;4.27;;
4642;SDS011;2334;48.710;9.622;2023-06-10T06:28:05;5.20;;;4.00;;
4642;SDS011;2334;48.710;9.622;2023-06-10T06:30:35;7.20;;;4.20;;
4642;SDS011;2334;48.710;9.622;2023-06-10T06:33:02;6.47;;;5.40;;
4642;SDS011;2334;48.710;9.622;2023-06-10T06:35:30;5.77;;;4.50;;
4642;SDS011;2334;48.710;9.622;2023-06-10T06:37:57;4.97;;;4.30;;
4642;SDS011;2334;48.710;9.622;2023-06-10T06:40:24;5.13;;;4.33;;
4642;SDS011;2334;48.710;9.622;2023-06-10T06:42:51;4.80;;;4.30;;
4642;SDS011;2334;48.710;9.622;2023-06-10T06:45:18;4.97;;;4.47;;
4642;SDS011;2334;48.710;9.622;2023-06-10T06:47:47;5.30;;;4.30;;
4642;SDS011;2334;48.710;9.622;2023-06-10T06:50:13;6.17;;;5.00;;
4642;SDS011;2334;48.710;9.622;2023-06-10T06:52:41;4.90;;;4.17;;
4642;SDS011;2334;48.710;9.622;2023-06-10T06:55:08;7.07;;;4.43;;
4642;SDS011;2334;48.710;9.622;2023-06-10T06:57:35;4.40;;;4.00;;
4642;SDS011;2334;48.710;9.622;2023-06-10T07:00:03;5.37;;;3.90;;
4642;SDS011;2334;48.710;9.622;2023-06-10T07:02:30;4.80;;;4.30;;
4642;SDS011;2334;48.710;9.622;2023-06-10T07:04:59;4.83;;;4.00;;
4642;SDS011;2334;48.710;9.622;2023-06-10T07:07:26;5.63;;;4.37;;
4642;SDS011;2334;48.710;9.622;2023-06-10T07:09:53;4.77;;;4.30;;
4642;SDS011;2334;48.710;9.622;2023-06-10T07:12:20;8.20;;;4.53;;
4642;SDS011;2334;48.710;9.622;2023-06-10T07:14:48;4.67;;;4.20;;
4642;SDS011;2334;48.710;9.622;2023-06-10T07:17:15;4.53;;;4.13;;
4642;SDS011;2334;48.710;9.622;2023-06-10T07:19:43;5.83;;;4.80;;
4642;SDS011;2334;48.710;9.622;2023-06-10T07:22:17;4.80;;;4.30;;
4642;SDS011;2334;48.710;9.622;2023-06-10T07:24:44;5.23;;;4.40;;
4642;SDS011;2334;48.710;9.622;2023-06-10T07:27:11;4.80;;;4.37;;
4642;SDS011;2334;48.710;9.622;2023-06-10T07:29:38;4.37;;;3.80;;
4642;SDS011;2334;48.710;9.622;2023-06-10T07:32:05;6.80;;;4.90;;
4642;SDS011;2334;48.710;9.622;2023-06-10T07:34:33;4.80;;;4.17;;
4642;SDS011;2334;48.710;9.622;2023-06-10T07:37:00;5.53;;;4.20;;
4642;SDS011;2334;48.710;9.622;2023-06-10T07:39:28;7.90;;;4.53;;
4642;SDS011;2334;48.710;9.622;2023-06-10T07:41:55;7.70;;;4.10;;
4642;SDS011;2334;48.710;9.622;2023-06-10T07:44:22;4.17;;;3.77;;
4642;SDS011;2334;48.710;9.622;2023-06-10T07:46:49;3.83;;;3.53;;
4642;SDS011;2334;48.710;9.622;2023-06-10T07:49:16;6.30;;;4.90;;
4642;SDS011;2334;48.710;9.622;2023-06-10T07:51:43;6.70;;;4.47;;
4642;SDS011;2334;48.710;9.622;2023-06-10T07:54:10;6.43;;;4.80;;
4642;SDS011;2334;48.710;9.622;2023-06-10T07:56:38;4.33;;;3.70;;
4642;SDS011;2334;48.710;9.622;2023-06-10T07:59:05;5.57;;;4.13;;
4642;SDS011;2334;48.710;9.622;2023-06-10T08:01:32;4.37;;;3.97;;
4642;SDS011;2334;48.710;9.622;2023-06-10T08:04:00;4.20;;;3.73;;
4642;SDS011;2334;48.710;9.622;2023-06-10T08:06:27;7.80;;;4.63;;
4642;SDS011;2334;48.710;9.622;2023-06-10T08:08:54;6.30;;;4.30;;
4642;SDS011;2334;48.710;9.622;2023-06-10T08:11:21;4.30;;;3.90;;
4642;SDS011;2334;48.710;9.622;2023-06-10T08:13:49;4.93;;;3.70;;
4642;SDS011;2334;48.710;9.622;2023-06-10T08:16:16;4.37;;;3.43;;
4642;SDS011;2334;48.710;9.622;2023-06-10T08:18:43;4.77;;;3.93;;
4642;SDS011;2334;48.710;9.622;2023-06-10T08:21:10;5.20;;;3.80;;
4642;SDS011;2334;48.710;9.622;2023-06-10T08:23:37;3.90;;;3.60;;
4642;SDS011;2334;48.710;9.622;2023-06-10T08:26:04;5.40;;;3.43;;
4642;SDS011;2334;48.710;9.622;2023-06-10T08:28:31;4.77;;;3.20;;
4642;SDS011;2334;48.710;9.622;2023-06-10T08:30:59;4.60;;;3.50;;
4642;SDS011;2334;48.710;9.622;2023-06-10T08:33:26;4.00;;;3.60;;
4642;SDS011;2334;48.710;9.622;2023-06-10T08:35:53;3.80;;;3.50;;
4642;SDS011;2334;48.710;9.622;2023-06-10T08:38:19;4.10;;;3.73;;
4642;SDS011;2334;48.710;9.622;2023-06-10T08:40:46;3.93;;;3.63;;
4642;SDS011;2334;48.710;9.622;2023-06-10T08:43:16;4.33;;;3.83;;
4642;SDS011;2334;48.710;9.622;2023-06-10T08:45:48;3.70;;;3.40;;
4642;SDS011;2334;48.710;9.622;2023-06-10T08:48:17;4.10;;;3.80;;
4642;SDS011;2334;48.710;9.622;2023-06-10T08:50:46;3.53;;;3.23;;
4642;SDS011;2334;48.710;9.622;2023-06-10T08:53:17;3.83;;;3.50;;
4642;SDS011;2334;48.710;9.622;2023-06-10T08:55:46;4.03;;;3.60;;
4642;SDS011;2334;48.710;9.622;2023-06-10T08:58:17;3.30;;;3.10;;
4642;SDS011;2334;48.710;9.622;2023-06-10T09:00:44;4.00;;;2.90;;
4642;SDS011;2334;48.710;9.622;2023-06-10T09:03:15;4.00;;;3.40;;
4642;SDS011;2334;48.710;9.622;2023-06-10T09:05:44;3.77;;;3.43;;
4642;SDS011;2334;48.710;9.622;2023-06-10T09:08:11;3.30;;;3.00;;
4642;SDS011;2334;48.710;9.622;2023-06-10T09:10:39;3.60;;;2.93;;
4642;SDS011;2334;48.710;9.622;2023-06-10T09:13:07;3.90;;;3.60;;
4642;SDS011;2334;48.710;9.622;2023-06-10T09:15:41;3.10;;;2.90;;
4642;SDS011;2334;48.710;9.622;2023-06-10T09:18:27;3.93;;;3.63;;
4642;SDS011;2334;48.710;9.622;2023-06-10T09:20:56;4.17;;;3.67;;
4642;SDS011;2334;48.710;9.622;2023-06-10T09:23:23;3.90;;;3.60;;
4642;SDS011;2334;48.710;9.622;2023-06-10T09:29:12;2.83;;;2.63;;
4642;SDS011;2334;48.710;9.622;2023-06-10T09:31:43;2.73;;;2.53;;
4642;SDS011;2334;48.710;9.622;2023-06-10T09:34:13;3.13;;;2.93;;
4642;SDS011;2334;48.710;9.622;2023-06-10T09:36:43;4.70;;;4.30;;
4642;SDS011;2334;48.710;9.622;2023-06-10T09:39:15;3.90;;;3.50;;
4642;SDS011;2334;48.710;9.622;2023-06-10T09:41:43;3.90;;;3.60;;
4642;SDS011;2334;48.710;9.622;2023-06-10T09:44:13;3.97;;;3.57;;
4642;SDS011;2334;48.710;9.622;2023-06-10T09:46:41;3.90;;;3.60;;
4642;SDS011;2334;48.710;9.622;2023-06-10T09:49:10;5.00;;;3.43;;
4642;SDS011;2334;48.710;9.622;2023-06-10T09:51:37;3.43;;;3.13;;
4642;SDS011;2334;48.710;9.622;2023-06-10T09:54:16;4.03;;;3.60;;
4642;SDS011;2334;48.710;9.622;2023-06-10T09:56:43;3.27;;;3.03;;
4642;SDS011;2334;48.710;9.622;2023-06-10T09:59:13;3.70;;;3.37;;
4642;SDS011;2334;48.710;9.622;2023-06-10T10:01:41;3.57;;;3.33;;
4642;SDS011;2334;48.710;9.622;2023-06-10T10:04:08;3.93;;;3.47;;
4642;SDS011;2334;48.710;9.622;2023-06-10T10:06:34;3.60;;;3.30;;
4642;SDS011;2334;48.710;9.622;2023-06-10T10:09:02;4.23;;;3.30;;
4642;SDS011;2334;48.710;9.622;2023-06-10T10:11:31;6.33;;;3.40;;
4642;SDS011;2334;48.710;9.622;2023-06-10T10:14:00;5.53;;;3.53;;
4642;SDS011;2334;48.710;9.622;2023-06-10T10:16:32;3.80;;;3.50;;
4642;SDS011;2334;48.710;9.622;2023-06-10T10:19:04;3.30;;;3.00;;
4642;SDS011;2334;48.710;9.622;2023-06-10T10:21:38;3.63;;;3.33;;
4642;SDS011;2334;48.710;9.622;2023-06-10T10:24:09;3.80;;;3.50;;
4642;SDS011;2334;48.710;9.622;2023-06-10T10:26:43;3.73;;;3.37;;
4642;SDS011;2334;48.710;9.622;2023-06-10T10:29:14;6.97;;;3.57;;
4642;SDS011;2334;48.710;9.622;2023-06-10T10:31:46;3.30;;;3.10;;
4642;SDS011;2334;48.710;9.622;2023-06-10T10:34:16;3.37;;;3.17;;
4642;SDS011;2334;48.710;9.622;2023-06-10T10:36:49;8.40;;;3.13;;
4642;SDS011;2334;48.710;9.622;2023-06-10T10:39:16;3.13;;;2.93;;
4642;SDS011;2334;48.710;9.622;2023-06-10T10:41:45;3.63;;;3.33;;
4642;SDS011;2334;48.710;9.622;2023-06-10T10:44:14;4.10;;;3.07;;
4642;SDS011;2334;48.710;9.622;2023-06-10T10:46:41;3.33;;;2.90;;
4642;SDS011;2334;48.710;9.622;2023-06-10T10:49:10;3.57;;;3.27;;
4642;SDS011;2334;48.710;9.622;2023-06-10T10:51:38;4.47;;;2.80;;
4642;SDS011;2334;48.710;9.622;2023-06-10T10:54:27;2.47;;;2.37;;
4642;SDS011;2334;48.710;9.622;2023-06-10T10:59:43;3.13;;;2.93;;
4642;SDS011;2334;48.710;9.622;2023-06-10T11:02:14;4.30;;;3.20;;
4642;SDS011;2334;48.710;9.622;2023-06-10T11:04:44;4.80;;;3.03;;
4642;SDS011;2334;48.710;9.622;2023-06-10T11:07:12;2.93;;;2.70;;
4642;SDS011;2334;48.710;9.622;2023-06-10T11:09:42;3.53;;;3.17;;
4642;SDS011;2334;48.710;9.622;2023-06-10T11:12:26;3.17;;;2.80;;
4642;SDS011;2334;48.710;9.622;2023-06-10T11:15:05;3.37;;;2.93;;
4642;SDS011;2334;48.710;9.622;2023-06-10T11:17:33;6.20;;;2.53;;
4642;SDS011;2334;48.710;9.622;2023-06-10T11:19:59;3.37;;;3.07;;
4642;SDS011;2334;48.710;9.622;2023-06-10T11:22:26;4.50;;;2.67;;
4642;SDS011;2334;48.710;9.622;2023-06-10T11:24:53;2.97;;;2.77;;
4642;SDS011;2334;48.710;9.622;2023-06-10T11:27:20;3.67;;;3.40;;
4642;SDS011;2334;48.710;9.622;2023-06-10T11:29:57;2.73;;;2.53;;
4642;SDS011;2334;48.710;9.622;2023-06-10T11:32:25;3.10;;;2.90;;
4642;SDS011;2334;48.710;9.622;2023-06-10T11:34:56;2.97;;;2.77;;
4642;SDS011;2334;48.710;9.622;2023-06-10T11:37:23;4.90;;;3.07;;
4642;SDS011;2334;48.710;9.622;2023-06-10T11:39:51;4.43;;;2.60;;
4642;SDS011;2334;48.710;9.622;2023-06-10T11:42:19;3.03;;;2.83;;
4642;SDS011;2334;48.710;9.622;2023-06-10T11:44:49;2.70;;;2.60;;
4642;SDS011;2334;48.710;9.622;2023-06-10T11:47:18;5.40;;;2.97;;
4642;SDS011;2334;48.710;9.622;2023-06-10T11:49:55;5.67;;;2.63;;
4642;SDS011;2334;48.710;9.622;2023-06-10T11:52:25;3.20;;;3.00;;
4642;SDS011;2334;48.710;9.622;2023-06-10T11:54:53;4.00;;;3.60;;
4642;SDS011;2334;48.710;9.622;2023-06-10T11:57:21;2.50;;;2.40;;
4642;SDS011;2334;48.710;9.622;2023-06-10T11:59:47;5.23;;;3.43;;
4642;SDS011;2334;48.710;9.622;2023-06-10T12:02:15;2.87;;;2.67;;
4642;SDS011;2334;48.710;9.622;2023-06-10T12:04:46;5.03;;;2.93;;
4642;SDS011;2334;48.710;9.622;2023-06-10T12:07:17;3.77;;;3.47;;
4642;SDS011;2334;48.710;9.622;2023-06-10T12:09:44;3.50;;;3.13;;
4642;SDS011;2334;48.710;9.622;2023-06-10T12:12:11;3.10;;;2.43;;
4642;SDS011;2334;48.710;9.622;2023-06-10T12:14:51;3.70;;;3.40;;
4642;SDS011;2334;48.710;9.622;2023-06-10T12:17:21;3.43;;;2.93;;
4642;SDS011;2334;48.710;9.622;2023-06-10T12:19:50;5.47;;;2.70;;
4642;SDS011;2334;48.710;9.622;2023-06-10T12:22:17;3.13;;;2.93;;
4642;SDS011;2334;48.710;9.622;2023-06-10T12:24:45;3.53;;;2.57;;
4642;SDS011;2334;48.710;9.622;2023-06-10T12:27:24;2.67;;;2.47;;
4642;SDS011;2334;48.710;9.622;2023-06-10T12:29:53;8.07;;;2.97;;
4642;SDS011;2334;48.710;9.622;2023-06-10T12:32:20;2.50;;;2.30;;
4642;SDS011;2334;48.710;9.622;2023-06-10T12:35:03;3.80;;;2.40;;
4642;SDS011;2334;48.710;9.622;2023-06-10T12:37:30;2.17;;;2.07;;
4642;SDS011;2334;48.710;9.622;2023-06-10T12:39:59;2.40;;;2.20;;
4642;SDS011;2334;48.710;9.622;2023-06-10T12:42:28;2.47;;;2.23;;
4642;SDS011;2334;48.710;9.622;2023-06-10T12:44:55;2.80;;;2.43;;
4642;SDS011;2334;48.710;9.622;2023-06-10T12:47:28;2.30;;;2.20;;
4642;SDS011;2334;48.710;9.622;2023-06-10T12:49:57;2.30;;;2.13;;
4642;SDS011;2334;48.710;9.622;2023-06-10T12:52:26;2.80;;;2.60;;
4642;SDS011;2334;48.710;9.622;2023-06-10T12:54:53;2.23;;;2.13;;
4642;SDS011;2334;48.710;9.622;2023-06-10T12:57:20;3.27;;;3.03;;
4642;SDS011;2334;48.710;9.622;2023-06-10T12:59:47;3.53;;;2.60;;
4642;SDS011;2334;48.710;9.622;2023-06-10T13:02:17;2.50;;;2.30;;
4642;SDS011;2334;48.710;9.622;2023-06-10T13:04:45;2.87;;;2.67;;
4642;SDS011;2334;48.710;9.622;2023-06-10T13:07:12;3.10;;;2.47;;
4642;SDS011;2334;48.710;9.622;2023-06-10T13:09:41;2.33;;;2.20;;
4642;SDS011;2334;48.710;9.622;2023-06-10T13:12:08;2.30;;;2.10;;
4642;SDS011;2334;48.710;9.622;2023-06-10T13:14:35;2.50;;;2.17;;
4642;SDS011;2334;48.710;9.622;2023-06-10T13:17:04;3.50;;;2.60;;
4642;SDS011;2334;48.710;9.622;2023-06-10T13:19:31;2.60;;;2.40;;
4642;SDS011;2334;48.710;9.622;2023-06-10T13:21:59;2.40;;;2.30;;
4642;SDS011;2334;48.710;9.622;2023-06-10T13:24:26;2.50;;;2.30;;
4642;SDS011;2334;48.710;9.622;2023-06-10T13:26:54;2.53;;;2.33;;
4642;SDS011;2334;48.710;9.622;2023-06-10T13:29:22;3.23;;;2.47;;
4642;SDS011;2334;48.710;9.622;2023-06-10T13:31:49;4.70;;;2.80;;
4642;SDS011;2334;48.710;9.622;2023-06-10T13:34:16;3.13;;;2.83;;
4642;SDS011;2334;48.710;9.622;2023-06-10T13:36:43;3.00;;;2.70;;
4642;SDS011;2334;48.710;9.622;2023-06-10T13:39:10;5.50;;;3.00;;
4642;SDS011;2334;48.710;9.622;2023-06-10T13:41:38;3.40;;;3.20;;
4642;SDS011;2334;48.710;9.622;2023-06-10T13:44:08;4.87;;;2.53;;
4642;SDS011;2334;48.710;9.622;2023-06-10T13:46:34;2.77;;;2.57;;
4642;SDS011;2334;48.710;9.622;2023-06-10T13:49:01;4.53;;;3.50;;
4642;SDS011;2334;48.710;9.622;2023-06-10T13:51:28;3.43;;;3.13;;
4642;SDS011;2334;48.710;9.622;2023-06-10T13:53:55;3.33;;;3.13;;
4642;SDS011;2334;48.710;9.622;2023-06-10T13:56:22;3.27;;;2.97;;
4642;SDS011;2334;48.710;9.622;2023-06-10T13:58:50;3.23;;;2.93;;
4642;SDS011;2334;48.710;9.622;2023-06-10T14:01:18;2.70;;;2.50;;
4642;SDS011;2334;48.710;9.622;2023-06-10T14:03:45;6.40;;;2.73;;
4642;SDS011;2334;48.710;9.622;2023-06-10T14:06:12;2.57;;;2.37;;
4642;SDS011;2334;48.710;9.622;2023-06-10T14:08:43;4.70;;;2.43;;
4642;SDS011;2334;48.710;9.622;2023-06-10T14:11:10;3.17;;;2.87;;
4642;SDS011;2334;48.710;9.622;2023-06-10T14:13:37;2.30;;;2.20;;
4642;SDS011;2334;48.710;9.622;2023-06-10T14:16:04;2.90;;;2.70;;
4642;SDS011;2334;48.710;9.622;2023-06-10T14:18:33;2.97;;;2.77;;
4642;SDS011;2334;48.710;9.622;2023-06-10T14:20:59;2.57;;;2.37;;
4642;SDS011;2334;48.710;9.622;2023-06-10T14:23:26;3.00;;;2.50;;
4642;SDS011;2334;48.710;9.622;2023-06-10T14:25:53;3.20;;;3.00;;
4642;SDS011;2334;48.710;9.622;2023-06-10T14:28:20;2.60;;;2.40;;
4642;SDS011;2334;48.710;9.622;2023-06-10T14:30:49;2.60;;;2.20;;
4642;SDS011;2334;48.710;9.622;2023-06-10T14:33:15;4.10;;;2.20;;
4642;SDS011;2334;48.710;9.622;2023-06-10T14:35:44;3.20;;;3.00;;
4642;SDS011;2334;48.710;9.622;2023-06-10T14:38:11;5.23;;;3.23;;
4642;SDS011;2334;48.710;9.622;2023-06-10T14:40:37;2.70;;;2.50;;
4642;SDS011;2334;48.710;9.622;2023-06-10T14:43:04;3.13;;;2.93;;
4642;SDS011;2334;48.710;9.622;2023-06-10T14:45:34;4.40;;;2.73;;
4642;SDS011;2334;48.710;9.622;2023-06-10T14:48:02;3.07;;;2.73;;
4642;SDS011;2334;48.710;9.622;2023-06-10T14:50:28;2.90;;;2.60;;
4642;SDS011;2334;48.710;9.622;2023-06-10T14:52:57;2.40;;;2.30;;
4642;SDS011;2334;48.710;9.622;2023-06-10T14:55:23;2.83;;;2.63;;
4642;SDS011;2334;48.710;9.622;2023-06-10T14:57:51;4.03;;;3.70;;
4642;SDS011;2334;48.710;9.622;2023-06-10T15:00:18;3.00;;;2.77;;
4642;SDS011;2334;48.710;9.622;2023-06-10T15:02:48;3.93;;;2.80;;
4642;SDS011;2334;48.710;9.622;2023-06-10T15:05:15;2.70;;;2.60;;
4642;SDS011;2334;48.710;9.622;2023-06-10T15:07:42;2.30;;;2.20;;
4642;SDS011;2334;48.710;9.622;2023-06-10T15:10:11;2.80;;;2.33;;
4642;SDS011;2334;48.710;9.622;2023-06-10T15:12:38;3.27;;;2.97;;
4642;SDS011;2334;48.710;9.622;2023-06-10T15:15:05;4.67;;;3.10;;
4642;SDS011;2334;48.710;9.622;2023-06-10T15:17:32;2.73;;;2.43;;
4642;SDS011;2334;48.710;9.622;2023-06-10T15:19:59;2.50;;;2.30;;
4642;SDS011;2334;48.710;9.622;2023-06-10T15:22:26;4.93;;;3.03;;
4642;SDS011;2334;48.710;9.622;2023-06-10T15:24:53;4.03;;;3.10;;
4642;SDS011;2334;48.710;9.622;2023-06-10T15:27:21;2.63;;;2.40;;